sensor_id;sensor_type;location;lat;lon;timestamp;pressure;altitude;pressure_sealevel;temperature;humidity
21129;BME280;10722;51.910;8.352;2023-03-01T00:02:07;102277.34;;;-1.26;81.94
21129;BME280;10722;51.910;8.352;2023-03-01T00:04:52;102271.50;;;-1.25;82.25
21129;BME280;10722;51.910;8.352;2023-03-01T00:07:37;102275.25;;;-1.49;82.58
21129;BME280;10722;51.910;8.352;2023-03-01T00:10:22;102283.59;;;-1.69;83.44
21129;BME280;10722;51.910;8.352;2023-03-01T00:13:08;102302.88;;;-1.71;83.84
21129;BME280;10722;51.910;8.352;2023-03-01T00:15:53;102303.59;;;-1.72;84.34
21129;BME280;10722;51.910;8.352;2023-03-01T00:18:38;102302.44;;;-1.76;84.72
21129;BME280;10722;51.910;8.352;2023-03-01T00:21:24;102308.44;;;-1.84;85.10
21129;BME280;10722;51.910;8.352;2023-03-01T00:24:10;102309.66;;;-1.89;85.49
21129;BME280;10722;51.910;8.352;2023-03-01T00:26:55;102304.03;;;-1.95;86.26
21129;BME280;10722;51.910;8.352;2023-03-01T00:29:41;102307.59;;;-1.93;86.41
21129;BME280;10722;51.910;8.352;2023-03-01T00:32:26;102311.78;;;-1.94;86.47
21129;BME280;10722;51.910;8.352;2023-03-01T00:35:11;102307.41;;;-1.86;86.95
21129;BME280;10722;51.910;8.352;2023-03-01T00:37:57;102302.03;;;-1.89;86.84
21129;BME280;10722;51.910;8.352;2023-03-01T00:40:42;102302.84;;;-1.99;86.36
21129;BME280;10722;51.910;8.352;2023-03-01T00:43:27;102306.75;;;-2.11;87.17
21129;BME280;10722;51.910;8.352;2023-03-01T00:46:15;102313.00;;;-1.99;87.36
21129;BME280;10722;51.910;8.352;2023-03-01T00:49:01;102293.84;;;-1.87;87.14
21129;BME280;10722;51.910;8.352;2023-03-01T00:51:46;102301.78;;;-1.92;87.00
21129;BME280;10722;51.910;8.352;2023-03-01T00:54:31;102300.22;;;-1.82;87.06
21129;BME280;10722;51.910;8.352;2023-03-01T00:57:16;102305.94;;;-1.93;87.16
21129;BME280;10722;51.910;8.352;2023-03-01T01:00:03;102308.06;;;-1.97;87.11
21129;BME280;10722;51.910;8.352;2023-03-01T01:02:49;102314.56;;;-1.82;87.12
21129;BME280;10722;51.910;8.352;2023-03-01T01:05:35;102305.47;;;-1.89;87.11
21129;BME280;10722;51.910;8.352;2023-03-01T01:08:20;102292.22;;;-1.95;87.44
21129;BME280;10722;51.910;8.352;2023-03-01T01:11:05;102289.59;;;-2.05;87.27
21129;BME280;10722;51.910;8.352;2023-03-01T01:13:51;102295.31;;;-2.16;87.55
21129;BME280;10722;51.910;8.352;2023-03-01T01:16:36;102297.41;;;-2.21;87.99
21129;BME280;10722;51.910;8.352;2023-03-01T01:19:21;102298.03;;;-2.23;88.13
21129;BME280;10722;51.910;8.352;2023-03-01T01:22:06;102289.66;;;-2.14;88.43
21129;BME280;10722;51.910;8.352;2023-03-01T01:24:52;102286.34;;;-2.13;88.70
21129;BME280;10722;51.910;8.352;2023-03-01T01:27:37;102291.19;;;-2.24;88.78
21129;BME280;10722;51.910;8.352;2023-03-01T01:30:22;102286.78;;;-2.08;88.99
21129;BME280;10722;51.910;8.352;2023-03-01T01:33:33;102277.53;;;-2.08;88.50
21129;BME280;10722;51.910;8.352;2023-03-01T01:36:29;102272.13;;;-2.02;88.15
21129;BME280;10722;51.910;8.352;2023-03-01T01:39:15;102266.78;;;-2.05;88.11
21129;BME280;10722;51.910;8.352;2023-03-01T01:42:01;102262.81;;;-2.20;88.08
21129;BME280;10722;51.910;8.352;2023-03-01T01:48:14;102265.81;;;-2.24;88.50
21129;BME280;10722;51.910;8.352;2023-03-01T01:51:02;102260.56;;;-2.17;88.46
21129;BME280;10722;51.910;8.352;2023-03-01T01:53:51;102252.09;;;-2.27;88.54
21129;BME280;10722;51.910;8.352;2023-03-01T01:56:39;102252.41;;;-2.32;88.61
21129;BME280;10722;51.910;8.352;2023-03-01T01:59:30;102247.31;;;-2.23;88.70
21129;BME280;10722;51.910;8.352;2023-03-01T02:02:30;102251.94;;;-2.19;88.58
21129;BME280;10722;51.910;8.352;2023-03-01T02:08:12;102248.47;;;-2.20;88.75
21129;BME280;10722;51.910;8.352;2023-03-01T02:10:58;102249.09;;;-2.22;88.42
21129;BME280;10722;51.910;8.352;2023-03-01T02:13:44;102246.47;;;-2.33;88.69
21129;BME280;10722;51.910;8.352;2023-03-01T02:16:29;102253.34;;;-2.40;88.95
21129;BME280;10722;51.910;8.352;2023-03-01T02:22:29;102248.06;;;-2.24;88.74
21129;BME280;10722;51.910;8.352;2023-03-01T02:31:01;102240.66;;;-2.40;88.98
21129;BME280;10722;51.910;8.352;2023-03-01T02:33:48;102250.53;;;-2.43;88.86
21129;BME280;10722;51.910;8.352;2023-03-01T02:36:39;102259.59;;;-2.37;89.30
21129;BME280;10722;51.910;8.352;2023-03-01T02:39:28;102253.03;;;-2.35;89.01
21129;BME280;10722;51.910;8.352;2023-03-01T02:42:20;102248.16;;;-2.42;88.75
21129;BME280;10722;51.910;8.352;2023-03-01T02:45:06;102247.22;;;-2.42;88.62
21129;BME280;10722;51.910;8.352;2023-03-01T02:48:00;102237.53;;;-2.38;88.99
21129;BME280;10722;51.910;8.352;2023-03-01T02:50:54;102244.66;;;-2.34;89.19
21129;BME280;10722;51.910;8.352;2023-03-01T02:53:53;102238.84;;;-2.33;88.73
21129;BME280;10722;51.910;8.352;2023-03-01T02:56:42;102232.69;;;-2.26;88.57
21129;BME280;10722;51.910;8.352;2023-03-01T02:59:31;102228.00;;;-2.40;88.35
21129;BME280;10722;51.910;8.352;2023-03-01T03:02:26;102230.09;;;-2.36;88.85
21129;BME280;10722;51.910;8.352;2023-03-01T03:08:01;102220.72;;;-2.46;88.66
21129;BME280;10722;51.910;8.352;2023-03-01T03:10:46;102233.91;;;-2.31;88.92
21129;BME280;10722;51.910;8.352;2023-03-01T03:13:31;102228.16;;;-2.39;88.50
21129;BME280;10722;51.910;8.352;2023-03-01T03:16:17;102209.69;;;-2.46;88.81
21129;BME280;10722;51.910;8.352;2023-03-01T03:19:02;102207.59;;;-2.51;89.18
21129;BME280;10722;51.910;8.352;2023-03-01T03:21:47;102209.22;;;-2.42;88.96
21129;BME280;10722;51.910;8.352;2023-03-01T03:24:32;102204.28;;;-2.41;88.80
21129;BME280;10722;51.910;8.352;2023-03-01T03:27:17;102208.19;;;-2.44;89.02
21129;BME280;10722;51.910;8.352;2023-03-01T03:30:02;102201.88;;;-2.39;89.36
21129;BME280;10722;51.910;8.352;2023-03-01T03:32:47;102202.19;;;-2.36;89.09
21129;BME280;10722;51.910;8.352;2023-03-01T03:35:43;102208.44;;;-2.33;89.15
21129;BME280;10722;51.910;8.352;2023-03-01T03:38:28;102200.13;;;-2.40;89.12
21129;BME280;10722;51.910;8.352;2023-03-01T03:41:15;102196.78;;;-2.58;89.20
21129;BME280;10722;51.910;8.352;2023-03-01T03:44:00;102206.44;;;-2.54;89.25
21129;BME280;10722;51.910;8.352;2023-03-01T03:46:45;102196.81;;;-2.67;89.88
21129;BME280;10722;51.910;8.352;2023-03-01T03:49:31;102200.88;;;-2.41;89.48
21129;BME280;10722;51.910;8.352;2023-03-01T03:52:16;102194.59;;;-2.45;89.39
21129;BME280;10722;51.910;8.352;2023-03-01T03:55:01;102188.09;;;-2.52;89.05
21129;BME280;10722;51.910;8.352;2023-03-01T03:57:47;102191.66;;;-2.50;89.48
21129;BME280;10722;51.910;8.352;2023-03-01T04:00:34;102193.47;;;-2.57;89.48
21129;BME280;10722;51.910;8.352;2023-03-01T04:03:20;102180.72;;;-2.76;89.69
21129;BME280;10722;51.910;8.352;2023-03-01T04:06:05;102190.31;;;-2.91;89.85
21129;BME280;10722;51.910;8.352;2023-03-01T04:08:50;102186.00;;;-3.01;90.34
21129;BME280;10722;51.910;8.352;2023-03-01T04:11:36;102193.00;;;-2.98;90.54
21129;BME280;10722;51.910;8.352;2023-03-01T04:14:21;102198.03;;;-2.81;90.54
21129;BME280;10722;51.910;8.352;2023-03-01T04:17:06;102199.81;;;-2.80;90.25
21129;BME280;10722;51.910;8.352;2023-03-01T04:19:51;102193.69;;;-2.82;90.33
21129;BME280;10722;51.910;8.352;2023-03-01T04:22:36;102195.53;;;-2.89;90.35
21129;BME280;10722;51.910;8.352;2023-03-01T04:25:20;102197.25;;;-2.71;90.55
21129;BME280;10722;51.910;8.352;2023-03-01T04:28:07;102194.16;;;-2.86;90.27
21129;BME280;10722;51.910;8.352;2023-03-01T04:30:55;102201.94;;;-2.84;90.55
21129;BME280;10722;51.910;8.352;2023-03-01T04:33:47;102197.88;;;-2.82;90.47
21129;BME280;10722;51.910;8.352;2023-03-01T04:36:32;102198.97;;;-2.98;90.55
21129;BME280;10722;51.910;8.352;2023-03-01T04:39:18;102197.03;;;-3.09;90.82
21129;BME280;10722;51.910;8.352;2023-03-01T04:42:03;102205.97;;;-3.04;91.33
21129;BME280;10722;51.910;8.352;2023-03-01T04:44:49;102204.75;;;-2.99;91.44
21129;BME280;10722;51.910;8.352;2023-03-01T04:47:34;102211.75;;;-2.96;91.61
21129;BME280;10722;51.910;8.352;2023-03-01T04:50:19;102208.63;;;-2.94;91.27
21129;BME280;10722;51.910;8.352;2023-03-01T04:53:05;102205.38;;;-3.01;91.33
21129;BME280;10722;51.910;8.352;2023-03-01T04:55:50;102208.31;;;-2.88;91.31
21129;BME280;10722;51.910;8.352;2023-03-01T04:58:36;102204.00;;;-2.89;91.41
21129;BME280;10722;51.910;8.352;2023-03-01T05:01:21;102200.31;;;-3.01;91.13
21129;BME280;10722;51.910;8.352;2023-03-01T05:04:06;102196.75;;;-3.03;91.17
21129;BME280;10722;51.910;8.352;2023-03-01T05:06:52;102199.84;;;-2.97;91.77
21129;BME280;10722;51.910;8.352;2023-03-01T05:09:37;102191.97;;;-3.00;91.95
21129;BME280;10722;51.910;8.352;2023-03-01T05:12:22;102187.97;;;-3.07;91.52
21129;BME280;10722;51.910;8.352;2023-03-01T05:15:08;102196.06;;;-2.75;91.88
21129;BME280;10722;51.910;8.352;2023-03-01T05:17:55;102190.59;;;-2.88;91.45
21129;BME280;10722;51.910;8.352;2023-03-01T05:20:40;102190.91;;;-2.94;91.80
21129;BME280;10722;51.910;8.352;2023-03-01T05:23:25;102198.66;;;-2.92;91.66
21129;BME280;10722;51.910;8.352;2023-03-01T05:26:10;102200.00;;;-3.04;92.06
21129;BME280;10722;51.910;8.352;2023-03-01T05:29:12;102204.44;;;-2.93;92.27
21129;BME280;10722;51.910;8.352;2023-03-01T05:31:59;102195.84;;;-3.04;92.29
21129;BME280;10722;51.910;8.352;2023-03-01T05:34:45;102192.72;;;-3.10;92.37
21129;BME280;10722;51.910;8.352;2023-03-01T05:37:30;102188.25;;;-3.04;92.64
21129;BME280;10722;51.910;8.352;2023-03-01T05:40:18;102186.75;;;-3.10;92.44
21129;BME280;10722;51.910;8.352;2023-03-01T05:43:04;102186.47;;;-3.13;92.68
21129;BME280;10722;51.910;8.352;2023-03-01T05:45:49;102191.81;;;-3.10;92.88
21129;BME280;10722;51.910;8.352;2023-03-01T05:48:35;102190.47;;;-3.16;92.88
21129;BME280;10722;51.910;8.352;2023-03-01T05:51:20;102191.81;;;-3.10;93.29
21129;BME280;10722;51.910;8.352;2023-03-01T05:54:05;102188.13;;;-3.14;93.29
21129;BME280;10722;51.910;8.352;2023-03-01T05:56:50;102195.28;;;-3.27;93.50
21129;BME280;10722;51.910;8.352;2023-03-01T05:59:35;102199.13;;;-3.22;93.97
21129;BME280;10722;51.910;8.352;2023-03-01T06:02:20;102192.59;;;-3.20;93.75
21129;BME280;10722;51.910;8.352;2023-03-01T06:05:07;102199.75;;;-3.25;94.36
21129;BME280;10722;51.910;8.352;2023-03-01T06:07:53;102206.44;;;-3.17;94.43
21129;BME280;10722;51.910;8.352;2023-03-01T06:10:39;102208.09;;;-3.26;94.43
21129;BME280;10722;51.910;8.352;2023-03-01T06:13:24;102212.09;;;-3.28;95.12
21129;BME280;10722;51.910;8.352;2023-03-01T06:16:10;102213.59;;;-3.30;95.04
21129;BME280;10722;51.910;8.352;2023-03-01T06:18:55;102221.31;;;-3.20;94.92
21129;BME280;10722;51.910;8.352;2023-03-01T06:21:40;102215.69;;;-3.26;95.15
21129;BME280;10722;51.910;8.352;2023-03-01T06:24:25;102223.09;;;-3.27;95.18
21129;BME280;10722;51.910;8.352;2023-03-01T06:27:10;102218.03;;;-3.19;95.43
21129;BME280;10722;51.910;8.352;2023-03-01T06:29:56;102221.63;;;-3.17;95.27
21129;BME280;10722;51.910;8.352;2023-03-01T06:32:41;102225.94;;;-3.16;95.74
21129;BME280;10722;51.910;8.352;2023-03-01T06:35:26;102221.31;;;-3.20;95.42
21129;BME280;10722;51.910;8.352;2023-03-01T06:38:12;102224.00;;;-3.09;95.81
21129;BME280;10722;51.910;8.352;2023-03-01T06:40:57;102232.59;;;-2.99;95.75
21129;BME280;10722;51.910;8.352;2023-03-01T06:43:43;102219.03;;;-2.82;95.82
21129;BME280;10722;51.910;8.352;2023-03-01T06:46:28;102216.44;;;-2.56;95.46
21129;BME280;10722;51.910;8.352;2023-03-01T06:49:14;102210.41;;;-2.11;94.45
21129;BME280;10722;51.910;8.352;2023-03-01T06:51:58;102200.06;;;-1.76;93.73
21129;BME280;10722;51.910;8.352;2023-03-01T06:54:44;102185.63;;;-1.86;92.23
21129;BME280;10722;51.910;8.352;2023-03-01T06:57:29;102171.75;;;-1.62;91.52
21129;BME280;10722;51.910;8.352;2023-03-01T07:00:15;102177.53;;;-1.25;90.96
21129;BME280;10722;51.910;8.352;2023-03-01T07:03:01;102159.31;;;-1.11;89.09
21129;BME280;10722;51.910;8.352;2023-03-01T07:05:48;102149.66;;;-1.15;88.33
21129;BME280;10722;51.910;8.352;2023-03-01T07:08:34;102141.47;;;-1.31;87.48
21129;BME280;10722;51.910;8.352;2023-03-01T07:11:19;102130.22;;;-1.44;87.21
21129;BME280;10722;51.910;8.352;2023-03-01T07:14:05;102139.72;;;-1.22;87.02
21129;BME280;10722;51.910;8.352;2023-03-01T07:16:50;102132.31;;;-1.00;86.88
21129;BME280;10722;51.910;8.352;2023-03-01T07:19:35;102129.25;;;-0.57;85.96
21129;BME280;10722;51.910;8.352;2023-03-01T07:22:20;102122.09;;;-0.81;85.12
21129;BME280;10722;51.910;8.352;2023-03-01T07:25:05;102105.38;;;-0.38;84.56
21129;BME280;10722;51.910;8.352;2023-03-01T07:27:51;102089.34;;;-0.37;83.60
21129;BME280;10722;51.910;8.352;2023-03-01T07:30:37;102080.72;;;-0.39;83.09
21129;BME280;10722;51.910;8.352;2023-03-01T07:33:22;102078.66;;;-0.43;83.04
21129;BME280;10722;51.910;8.352;2023-03-01T07:36:09;102064.16;;;-0.55;82.73
21129;BME280;10722;51.910;8.352;2023-03-01T07:38:54;102066.59;;;-0.66;82.60
21129;BME280;10722;51.910;8.352;2023-03-01T07:41:40;102067.50;;;-0.56;82.48
21129;BME280;10722;51.910;8.352;2023-03-01T07:44:25;102062.63;;;-0.42;82.17
21129;BME280;10722;51.910;8.352;2023-03-01T07:47:10;102048.03;;;-0.55;81.71
21129;BME280;10722;51.910;8.352;2023-03-01T07:49:55;102056.81;;;-0.41;81.73
21129;BME280;10722;51.910;8.352;2023-03-01T07:52:40;102057.31;;;-0.46;81.33
21129;BME280;10722;51.910;8.352;2023-03-01T07:55:26;102065.69;;;-0.26;81.36
21129;BME280;10722;51.910;8.352;2023-03-01T07:58:11;102058.56;;;-0.20;81.05
21129;BME280;10722;51.910;8.352;2023-03-01T08:01:04;102057.03;;;-0.18;80.81
21129;BME280;10722;51.910;8.352;2023-03-01T08:03:49;102056.41;;;-0.26;80.65
21129;BME280;10722;51.910;8.352;2023-03-01T08:06:35;102059.09;;;-0.14;80.65
21129;BME280;10722;51.910;8.352;2023-03-01T08:09:21;102063.25;;;-0.14;80.51
21129;BME280;10722;51.910;8.352;2023-03-01T08:12:06;102072.16;;;0.01;80.21
21129;BME280;10722;51.910;8.352;2023-03-01T08:14:52;102070.84;;;0.16;79.92
21129;BME280;10722;51.910;8.352;2023-03-01T08:17:37;102059.22;;;0.30;79.58
21129;BME280;10722;51.910;8.352;2023-03-01T08:20:22;102058.50;;;0.53;79.27
21129;BME280;10722;51.910;8.352;2023-03-01T08:23:07;102039.59;;;0.72;78.27
21129;BME280;10722;51.910;8.352;2023-03-01T08:25:52;102028.56;;;1.05;77.61
21129;BME280;10722;51.910;8.352;2023-03-01T08:28:38;102025.81;;;1.36;76.50
21129;BME280;10722;51.910;8.352;2023-03-01T08:31:30;101991.31;;;1.41;75.44
21129;BME280;10722;51.910;8.352;2023-03-01T08:34:17;101983.59;;;1.51;74.82
21129;BME280;10722;51.910;8.352;2023-03-01T08:37:02;101974.09;;;1.84;74.06
21129;BME280;10722;51.910;8.352;2023-03-01T08:39:47;101953.75;;;1.97;72.41
21129;BME280;10722;51.910;8.352;2023-03-01T08:42:33;101938.63;;;2.23;71.97
21129;BME280;10722;51.910;8.352;2023-03-01T08:45:19;101932.81;;;2.75;70.21
21129;BME280;10722;51.910;8.352;2023-03-01T08:48:04;101891.78;;;2.60;69.12
21129;BME280;10722;51.910;8.352;2023-03-01T08:50:49;101876.19;;;2.68;68.38
21129;BME280;10722;51.910;8.352;2023-03-01T08:53:34;101869.50;;;3.09;67.55
21129;BME280;10722;51.910;8.352;2023-03-01T08:56:19;101845.88;;;3.00;66.52
21129;BME280;10722;51.910;8.352;2023-03-01T08:59:05;101829.94;;;2.90;65.65
21129;BME280;10722;51.910;8.352;2023-03-01T09:01:50;101811.97;;;2.64;65.73
21129;BME280;10722;51.910;8.352;2023-03-01T09:04:36;101811.75;;;2.86;64.94
21129;BME280;10722;51.910;8.352;2023-03-01T09:07:21;101808.94;;;3.08;63.96
21129;BME280;10722;51.910;8.352;2023-03-01T09:10:07;101806.28;;;3.33;63.82
21129;BME280;10722;51.910;8.352;2023-03-01T09:12:53;101795.44;;;3.37;63.34
21129;BME280;10722;51.910;8.352;2023-03-01T09:15:38;101784.75;;;3.71;62.58
21129;BME280;10722;51.910;8.352;2023-03-01T09:18:24;101772.09;;;3.72;61.86
21129;BME280;10722;51.910;8.352;2023-03-01T09:21:14;101763.78;;;4.04;61.38
21129;BME280;10722;51.910;8.352;2023-03-01T09:24:00;101766.59;;;4.37;61.05
21129;BME280;10722;51.910;8.352;2023-03-01T09:26:45;101729.56;;;4.17;59.93
21129;BME280;10722;51.910;8.352;2023-03-01T09:29:30;101704.03;;;4.19;59.54
21129;BME280;10722;51.910;8.352;2023-03-01T09:32:15;101698.19;;;4.07;59.08
21129;BME280;10722;51.910;8.352;2023-03-01T09:35:01;101725.09;;;4.43;59.50
21129;BME280;10722;51.910;8.352;2023-03-01T09:37:46;101703.78;;;4.44;58.85
21129;BME280;10722;51.910;8.352;2023-03-01T09:40:35;101679.09;;;3.87;58.81
21129;BME280;10722;51.910;8.352;2023-03-01T09:46:26;101702.09;;;4.15;59.23
21129;BME280;10722;51.910;8.352;2023-03-01T09:49:15;101688.94;;;4.38;59.06
21129;BME280;10722;51.910;8.352;2023-03-01T09:55:11;101659.53;;;4.17;57.89
21129;BME280;10722;51.910;8.352;2023-03-01T10:07:52;101666.59;;;4.51;57.26
21129;BME280;10722;51.910;8.352;2023-03-01T10:10:47;101651.22;;;4.51;56.88
21129;BME280;10722;51.910;8.352;2023-03-01T10:19:43;101635.13;;;4.38;56.58
21129;BME280;10722;51.910;8.352;2023-03-01T10:22:30;101656.41;;;4.82;56.50
21129;BME280;10722;51.910;8.352;2023-03-01T10:25:29;101658.03;;;5.27;56.08
21129;BME280;10722;51.910;8.352;2023-03-01T10:28:18;101602.56;;;4.98;54.85
21129;BME280;10722;51.910;8.352;2023-03-01T10:31:15;101615.88;;;4.91;55.43
21129;BME280;10722;51.910;8.352;2023-03-01T10:34:10;101623.22;;;5.32;55.29
21129;BME280;10722;51.910;8.352;2023-03-01T10:37:00;101574.78;;;5.22;54.03
21129;BME280;10722;51.910;8.352;2023-03-01T10:42:48;101592.06;;;6.26;53.35
21129;BME280;10722;51.910;8.352;2023-03-01T10:45:36;101571.66;;;6.29;52.83
21129;BME280;10722;51.910;8.352;2023-03-01T10:48:24;101556.97;;;6.26;52.43
21129;BME280;10722;51.910;8.352;2023-03-01T10:51:17;101566.38;;;6.81;51.58
21129;BME280;10722;51.910;8.352;2023-03-01T10:54:04;101530.31;;;5.90;52.32
21129;BME280;10722;51.910;8.352;2023-03-01T10:56:53;101544.63;;;5.85;52.76
21129;BME280;10722;51.910;8.352;2023-03-01T10:59:44;101526.69;;;4.85;53.88
21129;BME280;10722;51.910;8.352;2023-03-01T11:02:48;101590.97;;;5.70;54.18
21129;BME280;10722;51.910;8.352;2023-03-01T11:05:33;101581.84;;;5.43;54.44
21129;BME280;10722;51.910;8.352;2023-03-01T11:11:33;101569.25;;;5.31;54.40
21129;BME280;10722;51.910;8.352;2023-03-01T11:14:24;101569.56;;;5.04;55.29
21129;BME280;10722;51.910;8.352;2023-03-01T11:17:16;101590.63;;;5.15;55.36
21129;BME280;10722;51.910;8.352;2023-03-01T11:23:10;101581.06;;;5.44;54.76
21129;BME280;10722;51.910;8.352;2023-03-01T11:26:01;101587.41;;;6.19;54.01
21129;BME280;10722;51.910;8.352;2023-03-01T11:28:50;101531.94;;;5.88;53.19
21129;BME280;10722;51.910;8.352;2023-03-01T11:31:41;101562.38;;;5.80;54.17
21129;BME280;10722;51.910;8.352;2023-03-01T11:34:47;101567.09;;;5.89;54.56
21129;BME280;10722;51.910;8.352;2023-03-01T11:37:39;101579.28;;;6.27;54.27
21129;BME280;10722;51.910;8.352;2023-03-01T11:40:29;101559.91;;;6.52;52.98
21129;BME280;10722;51.910;8.352;2023-03-01T12:11:03;101355.81;;;6.89;47.47
21129;BME280;10722;51.910;8.352;2023-03-01T12:17:40;101384.53;;;6.40;48.84
21129;BME280;10722;51.910;8.352;2023-03-01T12:23:20;101406.97;;;6.62;49.16
21129;BME280;10722;51.910;8.352;2023-03-01T12:29:33;101402.06;;;7.49;48.72
21129;BME280;10722;51.910;8.352;2023-03-01T12:38:42;101358.88;;;7.41;48.15
21129;BME280;10722;51.910;8.352;2023-03-01T12:42:04;101324.88;;;7.50;47.20
21129;BME280;10722;51.910;8.352;2023-03-01T12:51:59;101343.81;;;8.65;46.52
21129;BME280;10722;51.910;8.352;2023-03-01T12:54:48;101277.34;;;8.34;45.63
21129;BME280;10722;51.910;8.352;2023-03-01T12:57:42;101296.09;;;8.29;46.11
21129;BME280;10722;51.910;8.352;2023-03-01T13:00:45;101269.28;;;8.00;46.30
21129;BME280;10722;51.910;8.352;2023-03-01T13:10:33;101219.59;;;8.04;44.62
21129;BME280;10722;51.910;8.352;2023-03-01T13:13:24;101209.28;;;8.28;43.81
21129;BME280;10722;51.910;8.352;2023-03-01T13:16:40;101228.88;;;8.73;43.82
21129;BME280;10722;51.910;8.352;2023-03-01T13:19:27;101206.81;;;9.10;42.60
21129;BME280;10722;51.910;8.352;2023-03-01T13:22:29;101194.53;;;8.75;42.68
21129;BME280;10722;51.910;8.352;2023-03-01T13:25:19;101161.63;;;8.95;41.90
21129;BME280;10722;51.910;8.352;2023-03-01T13:29:11;101192.53;;;9.21;42.17
21129;BME280;10722;51.910;8.352;2023-03-01T13:34:47;101158.50;;;9.06;41.65
21129;BME280;10722;51.910;8.352;2023-03-01T13:37:35;101170.94;;;9.48;41.25
21129;BME280;10722;51.910;8.352;2023-03-01T13:43:28;101141.63;;;10.09;39.74
21129;BME280;10722;51.910;8.352;2023-03-01T13:46:20;101171.28;;;10.23;40.55
21129;BME280;10722;51.910;8.352;2023-03-01T13:49:12;101194.78;;;11.00;40.08
21129;BME280;10722;51.910;8.352;2023-03-01T13:51:59;101128.06;;;10.52;39.70
21129;BME280;10722;51.910;8.352;2023-03-01T13:54:44;101069.13;;;9.39;39.97
21129;BME280;10722;51.910;8.352;2023-03-01T13:57:34;101118.66;;;9.88;40.48
21129;BME280;10722;51.910;8.352;2023-03-01T14:03:15;101095.72;;;9.67;39.70
21129;BME280;10722;51.910;8.352;2023-03-01T14:06:06;101074.63;;;9.85;39.08
21129;BME280;10722;51.910;8.352;2023-03-01T14:18:38;100996.16;;;9.47;38.04
21129;BME280;10722;51.910;8.352;2023-03-01T14:21:26;101067.16;;;9.94;38.81
21129;BME280;10722;51.910;8.352;2023-03-01T14:24:17;101015.66;;;9.35;38.39
21129;BME280;10722;51.910;8.352;2023-03-01T14:27:02;101014.88;;;9.38;38.30
21129;BME280;10722;51.910;8.352;2023-03-01T14:30:12;101009.69;;;9.71;37.72
21129;BME280;10722;51.910;8.352;2023-03-01T14:33:04;101010.09;;;9.53;38.17
21129;BME280;10722;51.910;8.352;2023-03-01T14:36:06;100974.50;;;9.41;37.45
21129;BME280;10722;51.910;8.352;2023-03-01T14:38:51;100912.66;;;9.14;36.56
21129;BME280;10722;51.910;8.352;2023-03-01T14:41:36;100901.06;;;8.67;36.97
21129;BME280;10722;51.910;8.352;2023-03-01T14:44:23;100956.94;;;8.96;37.83
21129;BME280;10722;51.910;8.352;2023-03-01T14:47:14;100933.19;;;8.78;37.41
21129;BME280;10722;51.910;8.352;2023-03-01T14:50:08;100936.47;;;8.72;37.67
21129;BME280;10722;51.910;8.352;2023-03-01T14:52:58;100960.88;;;8.53;38.50
21129;BME280;10722;51.910;8.352;2023-03-01T14:55:47;100969.13;;;8.72;38.37
21129;BME280;10722;51.910;8.352;2023-03-01T14:58:33;100936.75;;;8.53;38.22
21129;BME280;10722;51.910;8.352;2023-03-01T15:01:18;100936.22;;;8.36;38.47
21129;BME280;10722;51.910;8.352;2023-03-01T15:04:04;100975.50;;;8.55;39.05
21129;BME280;10722;51.910;8.352;2023-03-01T15:06:52;101008.66;;;8.71;39.76
21129;BME280;10722;51.910;8.352;2023-03-01T15:09:41;101028.50;;;9.02;39.80
21129;BME280;10722;51.910;8.352;2023-03-01T15:15:33;100985.69;;;8.79;39.22
21129;BME280;10722;51.910;8.352;2023-03-01T15:18:26;101016.66;;;8.80;40.36
21129;BME280;10722;51.910;8.352;2023-03-01T15:21:21;101043.59;;;9.18;40.42
21129;BME280;10722;51.910;8.352;2023-03-01T15:26:57;101019.88;;;8.44;41.28
21129;BME280;10722;51.910;8.352;2023-03-01T15:29:48;101018.03;;;7.88;41.86
21129;BME280;10722;51.910;8.352;2023-03-01T15:32:35;101077.63;;;8.24;42.75
21129;BME280;10722;51.910;8.352;2023-03-01T15:35:40;101077.75;;;8.01;43.16
21129;BME280;10722;51.910;8.352;2023-03-01T15:38:51;101087.19;;;7.75;43.90
21129;BME280;10722;51.910;8.352;2023-03-01T15:41:47;101078.53;;;7.25;44.56
21129;BME280;10722;51.910;8.352;2023-03-01T15:44:35;101104.66;;;7.36;44.70
21129;BME280;10722;51.910;8.352;2023-03-01T15:47:29;101082.72;;;7.71;43.62
21129;BME280;10722;51.910;8.352;2023-03-01T15:50:43;101089.28;;;8.38;42.53
21129;BME280;10722;51.910;8.352;2023-03-01T15:53:28;101055.03;;;7.90;42.31
21129;BME280;10722;51.910;8.352;2023-03-01T15:56:13;101044.75;;;7.66;42.72
21129;BME280;10722;51.910;8.352;2023-03-01T15:59:00;101064.22;;;7.81;43.01
21129;BME280;10722;51.910;8.352;2023-03-01T16:01:46;101060.75;;;8.06;42.59
21129;BME280;10722;51.910;8.352;2023-03-01T16:04:30;101048.06;;;7.61;43.08
21129;BME280;10722;51.910;8.352;2023-03-01T16:07:16;101081.97;;;7.99;43.61
21129;BME280;10722;51.910;8.352;2023-03-01T16:10:01;101096.66;;;8.02;43.77
21129;BME280;10722;51.910;8.352;2023-03-01T16:12:47;101137.38;;;8.38;44.04
21129;BME280;10722;51.910;8.352;2023-03-01T16:15:33;101084.78;;;8.05;43.29
21129;BME280;10722;51.910;8.352;2023-03-01T16:18:18;101129.38;;;8.54;43.45
21129;BME280;10722;51.910;8.352;2023-03-01T16:21:04;101091.88;;;8.13;43.36
21129;BME280;10722;51.910;8.352;2023-03-01T16:23:50;101111.13;;;8.22;43.90
21129;BME280;10722;51.910;8.352;2023-03-01T16:26:36;101138.66;;;8.49;44.08
21129;BME280;10722;51.910;8.352;2023-03-01T16:29:21;101078.31;;;7.67;44.27
21129;BME280;10722;51.910;8.352;2023-03-01T16:32:06;101104.34;;;7.27;45.83
21129;BME280;10722;51.910;8.352;2023-03-01T16:34:52;101106.19;;;6.63;46.81
21129;BME280;10722;51.910;8.352;2023-03-01T16:37:38;101133.22;;;6.33;48.04
21129;BME280;10722;51.910;8.352;2023-03-01T16:40:28;101171.13;;;6.17;49.36
21129;BME280;10722;51.910;8.352;2023-03-01T16:43:13;101170.34;;;5.99;49.31
21129;BME280;10722;51.910;8.352;2023-03-01T16:45:58;101179.31;;;5.89;49.68
21129;BME280;10722;51.910;8.352;2023-03-01T16:48:43;101189.78;;;5.94;49.77
21129;BME280;10722;51.910;8.352;2023-03-01T16:51:28;101193.41;;;5.79;50.14
21129;BME280;10722;51.910;8.352;2023-03-01T16:54:13;101209.94;;;6.04;50.07
21129;BME280;10722;51.910;8.352;2023-03-01T16:56:58;101204.66;;;5.81;50.45